sensor_id;sensor_type;location;lat;lon;timestamp;P1;durP1;ratioP1;P2;durP2;ratioP2
15871;SDS011;8035;51.962;7.162;2023-07-30T00:00:48;3.00;;;2.67;;
15871;SDS011;8035;51.962;7.162;2023-07-30T00:03:15;5.67;;;2.80;;
15871;SDS011;8035;51.962;7.162;2023-07-30T00:05:41;3.47;;;2.87;;
15871;SDS011;8035;51.962;7.162;2023-07-30T00:08:06;3.13;;;2.37;;
15871;SDS011;8035;51.962;7.162;2023-07-30T00:10:32;4.50;;;3.03;;
15871;SDS011;8035;51.962;7.162;2023-07-30T00:12:57;4.47;;;3.33;;
15871;SDS011;8035;51.962;7.162;2023-07-30T00:15:23;5.67;;;3.47;;
15871;SDS011;8035;51.962;7.162;2023-07-30T00:17:49;5.07;;;3.30;;
15871;SDS011;8035;51.962;7.162;2023-07-30T00:20:14;4.60;;;3.00;;
15871;SDS011;8035;51.962;7.162;2023-07-30T00:22:40;6.97;;;3.90;;
15871;SDS011;8035;51.962;7.162;2023-07-30T00:25:05;4.53;;;3.33;;
15871;SDS011;8035;51.962;7.162;2023-07-30T00:27:31;6.67;;;3.50;;
15871;SDS011;8035;51.962;7.162;2023-07-30T00:29:57;4.10;;;3.70;;
15871;SDS011;8035;51.962;7.162;2023-07-30T00:32:22;6.37;;;4.00;;
15871;SDS011;8035;51.962;7.162;2023-07-30T00:34:48;6.70;;;4.67;;
15871;SDS011;8035;51.962;7.162;2023-07-30T00:37:13;7.63;;;4.87;;
15871;SDS011;8035;51.962;7.162;2023-07-30T00:39:39;8.07;;;4.40;;
15871;SDS011;8035;51.962;7.162;2023-07-30T00:42:05;5.13;;;4.63;;
15871;SDS011;8035;51.962;7.162;2023-07-30T00:44:30;6.60;;;4.47;;
15871;SDS011;8035;51.962;7.162;2023-07-30T00:46:56;12.70;;;4.90;;
15871;SDS011;8035;51.962;7.162;2023-07-30T00:49:22;7.07;;;4.30;;
15871;SDS011;8035;51.962;7.162;2023-07-30T00:51:47;9.77;;;4.17;;
15871;SDS011;8035;51.962;7.162;2023-07-30T00:54:13;6.40;;;4.77;;
15871;SDS011;8035;51.962;7.162;2023-07-30T00:56:38;4.87;;;3.30;;
15871;SDS011;8035;51.962;7.162;2023-07-30T00:59:13;8.70;;;4.53;;
15871;SDS011;8035;51.962;7.162;2023-07-30T01:01:39;7.33;;;4.10;;
15871;SDS011;8035;51.962;7.162;2023-07-30T01:04:07;5.80;;;3.83;;
15871;SDS011;8035;51.962;7.162;2023-07-30T01:06:34;6.67;;;4.13;;
15871;SDS011;8035;51.962;7.162;2023-07-30T01:08:59;8.07;;;4.43;;
15871;SDS011;8035;51.962;7.162;2023-07-30T01:11:25;7.50;;;3.93;;
15871;SDS011;8035;51.962;7.162;2023-07-30T01:13:51;6.97;;;4.20;;
15871;SDS011;8035;51.962;7.162;2023-07-30T01:16:18;6.67;;;3.83;;
15871;SDS011;8035;51.962;7.162;2023-07-30T01:18:43;6.17;;;4.67;;
15871;SDS011;8035;51.962;7.162;2023-07-30T01:21:09;6.67;;;4.37;;
15871;SDS011;8035;51.962;7.162;2023-07-30T01:23:34;7.43;;;4.17;;
15871;SDS011;8035;51.962;7.162;2023-07-30T01:26:02;6.90;;;4.10;;
15871;SDS011;8035;51.962;7.162;2023-07-30T01:28:34;6.53;;;4.13;;
15871;SDS011;8035;51.962;7.162;2023-07-30T01:31:03;6.43;;;4.67;;
15871;SDS011;8035;51.962;7.162;2023-07-30T01:33:31;7.00;;;4.53;;
15871;SDS011;8035;51.962;7.162;2023-07-30T01:35:57;5.63;;;4.33;;
15871;SDS011;8035;51.962;7.162;2023-07-30T01:38:24;5.57;;;3.67;;
15871;SDS011;8035;51.962;7.162;2023-07-30T01:40:51;10.00;;;4.77;;
15871;SDS011;8035;51.962;7.162;2023-07-30T01:43:17;6.27;;;4.73;;
15871;SDS011;8035;51.962;7.162;2023-07-30T01:45:42;7.37;;;4.30;;
15871;SDS011;8035;51.962;7.162;2023-07-30T01:48:08;10.17;;;4.23;;
15871;SDS011;8035;51.962;7.162;2023-07-30T01:50:34;7.23;;;4.07;;
15871;SDS011;8035;51.962;7.162;2023-07-30T01:52:59;11.70;;;4.70;;
15871;SDS011;8035;51.962;7.162;2023-07-30T01:55:25;6.57;;;4.37;;
15871;SDS011;8035;51.962;7.162;2023-07-30T01:57:50;6.37;;;3.87;;
15871;SDS011;8035;51.962;7.162;2023-07-30T02:00:16;6.13;;;4.03;;
15871;SDS011;8035;51.962;7.162;2023-07-30T02:02:41;7.97;;;3.20;;
15871;SDS011;8035;51.962;7.162;2023-07-30T02:05:07;6.53;;;4.00;;
15871;SDS011;8035;51.962;7.162;2023-07-30T02:07:33;7.23;;;4.03;;
15871;SDS011;8035;51.962;7.162;2023-07-30T02:09:58;3.97;;;3.57;;
15871;SDS011;8035;51.962;7.162;2023-07-30T02:12:24;4.80;;;3.87;;
15871;SDS011;8035;51.962;7.162;2023-07-30T02:14:49;5.27;;;3.57;;
15871;SDS011;8035;51.962;7.162;2023-07-30T02:17:15;4.97;;;3.67;;
15871;SDS011;8035;51.962;7.162;2023-07-30T02:19:41;5.63;;;3.57;;
15871;SDS011;8035;51.962;7.162;2023-07-30T02:22:07;7.53;;;3.97;;
15871;SDS011;8035;51.962;7.162;2023-07-30T02:24:32;7.17;;;3.30;;
15871;SDS011;8035;51.962;7.162;2023-07-30T02:26:58;8.73;;;3.63;;
15871;SDS011;8035;51.962;7.162;2023-07-30T02:29:23;5.03;;;3.40;;
15871;SDS011;8035;51.962;7.162;2023-07-30T02:31:49;8.33;;;3.90;;
15871;SDS011;8035;51.962;7.162;2023-07-30T02:34:14;6.67;;;3.63;;
15871;SDS011;8035;51.962;7.162;2023-07-30T02:36:40;6.40;;;3.33;;
15871;SDS011;8035;51.962;7.162;2023-07-30T02:39:05;6.80;;;3.40;;
15871;SDS011;8035;51.962;7.162;2023-07-30T02:41:31;5.33;;;3.47;;
15871;SDS011;8035;51.962;7.162;2023-07-30T02:43:57;6.60;;;3.33;;
15871;SDS011;8035;51.962;7.162;2023-07-30T02:46:22;8.23;;;3.20;;
15871;SDS011;8035;51.962;7.162;2023-07-30T02:48:48;7.67;;;3.70;;
15871;SDS011;8035;51.962;7.162;2023-07-30T02:51:13;4.60;;;3.27;;
15871;SDS011;8035;51.962;7.162;2023-07-30T02:53:39;6.67;;;3.50;;
15871;SDS011;8035;51.962;7.162;2023-07-30T02:56:04;6.77;;;3.67;;
15871;SDS011;8035;51.962;7.162;2023-07-30T02:58:30;6.20;;;3.40;;
15871;SDS011;8035;51.962;7.162;2023-07-30T03:01:04;5.57;;;3.23;;
15871;SDS011;8035;51.962;7.162;2023-07-30T03:03:30;6.57;;;3.30;;
15871;SDS011;8035;51.962;7.162;2023-07-30T03:05:56;6.57;;;3.03;;
15871;SDS011;8035;51.962;7.162;2023-07-30T03:08:21;6.17;;;3.53;;
15871;SDS011;8035;51.962;7.162;2023-07-30T03:10:47;8.97;;;4.03;;
15871;SDS011;8035;51.962;7.162;2023-07-30T03:13:13;8.50;;;3.70;;
15871;SDS011;8035;51.962;7.162;2023-07-30T03:15:38;6.97;;;3.30;;
15871;SDS011;8035;51.962;7.162;2023-07-30T03:18:04;11.63;;;3.60;;
15871;SDS011;8035;51.962;7.162;2023-07-30T03:20:29;7.33;;;3.63;;
15871;SDS011;8035;51.962;7.162;2023-07-30T03:22:55;5.60;;;3.50;;
15871;SDS011;8035;51.962;7.162;2023-07-30T03:25:20;5.47;;;3.53;;
15871;SDS011;8035;51.962;7.162;2023-07-30T03:27:46;7.50;;;3.00;;
15871;SDS011;8035;51.962;7.162;2023-07-30T03:30:11;8.00;;;3.43;;
15871;SDS011;8035;51.962;7.162;2023-07-30T03:32:37;10.23;;;3.67;;
15871;SDS011;8035;51.962;7.162;2023-07-30T03:35:02;8.27;;;4.60;;
15871;SDS011;8035;51.962;7.162;2023-07-30T03:37:28;6.77;;;3.30;;
15871;SDS011;8035;51.962;7.162;2023-07-30T03:39:54;8.90;;;3.80;;
15871;SDS011;8035;51.962;7.162;2023-07-30T03:42:20;5.83;;;2.87;;
15871;SDS011;8035;51.962;7.162;2023-07-30T03:44:45;8.93;;;3.40;;
15871;SDS011;8035;51.962;7.162;2023-07-30T03:47:11;8.50;;;3.57;;
15871;SDS011;8035;51.962;7.162;2023-07-30T03:49:36;9.50;;;3.30;;
15871;SDS011;8035;51.962;7.162;2023-07-30T03:52:02;8.27;;;3.17;;
15871;SDS011;8035;51.962;7.162;2023-07-30T03:54:28;7.83;;;3.50;;
15871;SDS011;8035;51.962;7.162;2023-07-30T03:56:54;7.10;;;3.27;;
15871;SDS011;8035;51.962;7.162;2023-07-30T03:59:19;5.83;;;3.33;;
15871;SDS011;8035;51.962;7.162;2023-07-30T04:01:45;8.53;;;3.07;;
15871;SDS011;8035;51.962;7.162;2023-07-30T04:04:11;8.23;;;3.03;;
15871;SDS011;8035;51.962;7.162;2023-07-30T04:06:36;6.30;;;3.07;;
15871;SDS011;8035;51.962;7.162;2023-07-30T04:09:02;5.47;;;3.50;;
15871;SDS011;8035;51.962;7.162;2023-07-30T04:11:28;6.03;;;3.83;;
15871;SDS011;8035;51.962;7.162;2023-07-30T04:13:53;11.30;;;4.17;;
15871;SDS011;8035;51.962;7.162;2023-07-30T04:16:19;7.53;;;3.60;;
15871;SDS011;8035;51.962;7.162;2023-07-30T04:18:44;5.63;;;3.27;;
15871;SDS011;8035;51.962;7.162;2023-07-30T04:21:10;7.03;;;3.20;;
15871;SDS011;8035;51.962;7.162;2023-07-30T04:23:36;5.33;;;3.10;;
15871;SDS011;8035;51.962;7.162;2023-07-30T04:26:01;4.70;;;3.07;;
15871;SDS011;8035;51.962;7.162;2023-07-30T04:28:27;10.97;;;3.70;;
15871;SDS011;8035;51.962;7.162;2023-07-30T04:30:52;7.60;;;4.07;;
15871;SDS011;8035;51.962;7.162;2023-07-30T04:33:18;8.83;;;3.67;;
15871;SDS011;8035;51.962;7.162;2023-07-30T04:35:43;9.40;;;3.50;;
15871;SDS011;8035;51.962;7.162;2023-07-30T04:38:09;9.17;;;3.67;;
15871;SDS011;8035;51.962;7.162;2023-07-30T04:40:34;7.60;;;3.03;;
15871;SDS011;8035;51.962;7.162;2023-07-30T04:43:00;7.17;;;3.57;;
15871;SDS011;8035;51.962;7.162;2023-07-30T04:45:26;5.13;;;3.13;;
15871;SDS011;8035;51.962;7.162;2023-07-30T04:47:51;7.80;;;3.47;;
15871;SDS011;8035;51.962;7.162;2023-07-30T04:50:17;6.07;;;3.30;;
15871;SDS011;8035;51.962;7.162;2023-07-30T04:52:42;6.90;;;3.73;;
15871;SDS011;8035;51.962;7.162;2023-07-30T04:55:08;8.40;;;3.93;;
15871;SDS011;8035;51.962;7.162;2023-07-30T04:57:34;8.27;;;4.10;;
15871;SDS011;8035;51.962;7.162;2023-07-30T04:59:59;10.47;;;4.93;;
15871;SDS011;8035;51.962;7.162;2023-07-30T05:02:25;9.57;;;5.03;;
15871;SDS011;8035;51.962;7.162;2023-07-30T05:04:50;9.67;;;4.80;;
15871;SDS011;8035;51.962;7.162;2023-07-30T05:07:16;8.40;;;5.83;;
15871;SDS011;8035;51.962;7.162;2023-07-30T05:09:41;11.97;;;5.43;;
15871;SDS011;8035;51.962;7.162;2023-07-30T05:12:07;10.03;;;4.93;;
15871;SDS011;8035;51.962;7.162;2023-07-30T05:14:33;13.87;;;6.00;;
15871;SDS011;8035;51.962;7.162;2023-07-30T05:16:58;11.93;;;6.30;;
15871;SDS011;8035;51.962;7.162;2023-07-30T05:19:24;11.67;;;7.10;;
15871;SDS011;8035;51.962;7.162;2023-07-30T05:21:49;11.53;;;7.00;;
15871;SDS011;8035;51.962;7.162;2023-07-30T05:24:15;15.63;;;7.13;;
15871;SDS011;8035;51.962;7.162;2023-07-30T05:26:41;17.77;;;8.33;;
15871;SDS011;8035;51.962;7.162;2023-07-30T05:29:06;18.77;;;7.90;;
15871;SDS011;8035;51.962;7.162;2023-07-30T05:31:32;15.73;;;8.13;;
15871;SDS011;8035;51.962;7.162;2023-07-30T05:33:57;13.77;;;8.23;;
15871;SDS011;8035;51.962;7.162;2023-07-30T05:36:23;17.10;;;8.63;;
15871;SDS011;8035;51.962;7.162;2023-07-30T05:38:48;18.97;;;8.30;;
15871;SDS011;8035;51.962;7.162;2023-07-30T05:41:15;21.00;;;8.33;;
15871;SDS011;8035;51.962;7.162;2023-07-30T05:43:40;20.73;;;9.17;;
15871;SDS011;8035;51.962;7.162;2023-07-30T05:46:06;24.03;;;9.27;;
15871;SDS011;8035;51.962;7.162;2023-07-30T05:48:33;15.27;;;8.80;;
15871;SDS011;8035;51.962;7.162;2023-07-30T05:50:58;19.77;;;9.37;;
15871;SDS011;8035;51.962;7.162;2023-07-30T05:53:24;18.87;;;8.43;;
15871;SDS011;8035;51.962;7.162;2023-07-30T05:55:50;17.50;;;8.60;;
15871;SDS011;8035;51.962;7.162;2023-07-30T05:58:15;14.67;;;9.27;;
15871;SDS011;8035;51.962;7.162;2023-07-30T06:00:41;18.90;;;9.90;;
15871;SDS011;8035;51.962;7.162;2023-07-30T06:03:07;15.73;;;9.43;;
15871;SDS011;8035;51.962;7.162;2023-07-30T06:05:38;20.70;;;9.60;;
15871;SDS011;8035;51.962;7.162;2023-07-30T06:08:04;18.80;;;9.27;;
15871;SDS011;8035;51.962;7.162;2023-07-30T06:10:30;17.33;;;9.27;;
15871;SDS011;8035;51.962;7.162;2023-07-30T06:12:56;18.07;;;8.60;;
15871;SDS011;8035;51.962;7.162;2023-07-30T06:15:21;20.50;;;9.50;;
15871;SDS011;8035;51.962;7.162;2023-07-30T06:17:47;17.77;;;9.77;;
15871;SDS011;8035;51.962;7.162;2023-07-30T06:20:12;20.23;;;9.37;;
15871;SDS011;8035;51.962;7.162;2023-07-30T06:22:38;16.27;;;9.23;;
15871;SDS011;8035;51.962;7.162;2023-07-30T06:25:04;20.43;;;9.90;;
15871;SDS011;8035;51.962;7.162;2023-07-30T06:27:29;16.87;;;10.00;;
15871;SDS011;8035;51.962;7.162;2023-07-30T06:29:55;24.47;;;9.90;;
15871;SDS011;8035;51.962;7.162;2023-07-30T06:32:20;15.80;;;9.47;;
15871;SDS011;8035;51.962;7.162;2023-07-30T06:34:46;19.43;;;9.57;;
15871;SDS011;8035;51.962;7.162;2023-07-30T06:37:12;20.47;;;10.03;;
15871;SDS011;8035;51.962;7.162;2023-07-30T06:39:37;22.97;;;10.27;;
15871;SDS011;8035;51.962;7.162;2023-07-30T06:42:03;20.43;;;10.50;;
15871;SDS011;8035;51.962;7.162;2023-07-30T06:44:28;17.90;;;9.60;;
15871;SDS011;8035;51.962;7.162;2023-07-30T06:46:54;23.30;;;11.37;;
15871;SDS011;8035;51.962;7.162;2023-07-30T06:49:19;28.63;;;11.23;;
15871;SDS011;8035;51.962;7.162;2023-07-30T06:51:45;23.10;;;10.37;;
15871;SDS011;8035;51.962;7.162;2023-07-30T06:54:11;25.60;;;10.80;;
15871;SDS011;8035;51.962;7.162;2023-07-30T06:56:37;18.07;;;10.33;;
15871;SDS011;8035;51.962;7.162;2023-07-30T06:59:02;21.97;;;9.80;;
15871;SDS011;8035;51.962;7.162;2023-07-30T07:01:28;17.77;;;9.90;;
15871;SDS011;8035;51.962;7.162;2023-07-30T07:03:54;24.30;;;10.67;;
15871;SDS011;8035;51.962;7.162;2023-07-30T07:06:20;26.93;;;11.27;;
15871;SDS011;8035;51.962;7.162;2023-07-30T07:08:45;16.80;;;9.70;;
15871;SDS011;8035;51.962;7.162;2023-07-30T07:11:11;20.53;;;11.33;;
15871;SDS011;8035;51.962;7.162;2023-07-30T07:13:36;26.03;;;10.83;;
15871;SDS011;8035;51.962;7.162;2023-07-30T07:16:02;21.17;;;10.87;;
15871;SDS011;8035;51.962;7.162;2023-07-30T07:18:28;21.90;;;10.80;;
15871;SDS011;8035;51.962;7.162;2023-07-30T07:20:54;23.97;;;10.13;;
15871;SDS011;8035;51.962;7.162;2023-07-30T07:23:19;19.53;;;9.43;;
15871;SDS011;8035;51.962;7.162;2023-07-30T07:25:45;20.33;;;9.23;;
15871;SDS011;8035;51.962;7.162;2023-07-30T07:28:11;16.47;;;8.77;;
15871;SDS011;8035;51.962;7.162;2023-07-30T07:30:36;23.67;;;9.63;;
15871;SDS011;8035;51.962;7.162;2023-07-30T07:33:02;19.30;;;9.30;;
15871;SDS011;8035;51.962;7.162;2023-07-30T07:35:28;19.97;;;9.27;;
15871;SDS011;8035;51.962;7.162;2023-07-30T07:37:54;19.63;;;9.33;;
15871;SDS011;8035;51.962;7.162;2023-07-30T07:40:19;15.20;;;8.37;;
15871;SDS011;8035;51.962;7.162;2023-07-30T07:42:45;18.23;;;9.23;;
15871;SDS011;8035;51.962;7.162;2023-07-30T07:45:10;21.50;;;9.53;;
15871;SDS011;8035;51.962;7.162;2023-07-30T07:47:36;17.43;;;8.90;;
15871;SDS011;8035;51.962;7.162;2023-07-30T07:50:01;25.13;;;10.13;;
15871;SDS011;8035;51.962;7.162;2023-07-30T07:52:27;17.40;;;8.03;;
15871;SDS011;8035;51.962;7.162;2023-07-30T07:54:53;19.23;;;9.13;;
15871;SDS011;8035;51.962;7.162;2023-07-30T07:57:18;22.17;;;9.47;;
15871;SDS011;8035;51.962;7.162;2023-07-30T07:59:44;17.17;;;9.33;;
15871;SDS011;8035;51.962;7.162;2023-07-30T08:02:11;18.90;;;9.57;;
15871;SDS011;8035;51.962;7.162;2023-07-30T08:04:37;16.97;;;8.43;;
15871;SDS011;8035;51.962;7.162;2023-07-30T08:07:02;25.13;;;9.83;;
15871;SDS011;8035;51.962;7.162;2023-07-30T08:09:29;23.27;;;9.70;;
15871;SDS011;8035;51.962;7.162;2023-07-30T08:11:55;17.43;;;9.57;;
15871;SDS011;8035;51.962;7.162;2023-07-30T08:14:20;20.50;;;10.07;;
15871;SDS011;8035;51.962;7.162;2023-07-30T08:16:46;18.63;;;8.97;;
15871;SDS011;8035;51.962;7.162;2023-07-30T08:19:12;16.90;;;10.20;;
15871;SDS011;8035;51.962;7.162;2023-07-30T08:21:37;17.83;;;9.37;;
15871;SDS011;8035;51.962;7.162;2023-07-30T08:24:03;15.87;;;8.50;;
15871;SDS011;8035;51.962;7.162;2023-07-30T08:26:29;16.20;;;9.23;;
15871;SDS011;8035;51.962;7.162;2023-07-30T08:28:55;20.57;;;9.30;;
15871;SDS011;8035;51.962;7.162;2023-07-30T08:31:20;20.50;;;8.97;;
15871;SDS011;8035;51.962;7.162;2023-07-30T08:33:46;20.13;;;8.67;;
15871;SDS011;8035;51.962;7.162;2023-07-30T08:36:11;20.90;;;9.70;;
15871;SDS011;8035;51.962;7.162;2023-07-30T08:38:37;17.97;;;9.07;;
15871;SDS011;8035;51.962;7.162;2023-07-30T08:41:02;15.30;;;8.83;;
15871;SDS011;8035;51.962;7.162;2023-07-30T08:43:28;20.20;;;9.20;;
15871;SDS011;8035;51.962;7.162;2023-07-30T08:45:54;15.97;;;7.90;;
15871;SDS011;8035;51.962;7.162;2023-07-30T08:48:20;16.63;;;8.20;;
15871;SDS011;8035;51.962;7.162;2023-07-30T08:50:45;20.50;;;8.07;;
15871;SDS011;8035;51.962;7.162;2023-07-30T08:53:14;19.03;;;8.47;;
15871;SDS011;8035;51.962;7.162;2023-07-30T08:55:40;15.03;;;8.87;;
15871;SDS011;8035;51.962;7.162;2023-07-30T08:58:06;15.63;;;7.40;;
15871;SDS011;8035;51.962;7.162;2023-07-30T09:00:34;16.20;;;7.23;;
15871;SDS011;8035;51.962;7.162;2023-07-30T09:03:02;14.50;;;7.63;;
15871;SDS011;8035;51.962;7.162;2023-07-30T09:05:29;14.47;;;7.50;;
15871;SDS011;8035;51.962;7.162;2023-07-30T09:07:56;16.70;;;7.00;;
15871;SDS011;8035;51.962;7.162;2023-07-30T09:10:22;9.97;;;5.87;;
15871;SDS011;8035;51.962;7.162;2023-07-30T09:12:54;15.90;;;5.97;;
15871;SDS011;8035;51.962;7.162;2023-07-30T09:15:35;10.60;;;5.57;;
15871;SDS011;8035;51.962;7.162;2023-07-30T09:18:02;15.83;;;5.60;;
15871;SDS011;8035;51.962;7.162;2023-07-30T09:20:39;13.43;;;5.57;;
15871;SDS011;8035;51.962;7.162;2023-07-30T09:23:06;10.87;;;5.37;;
15871;SDS011;8035;51.962;7.162;2023-07-30T09:25:33;10.43;;;5.33;;
15871;SDS011;8035;51.962;7.162;2023-07-30T09:27:59;9.43;;;5.00;;
15871;SDS011;8035;51.962;7.162;2023-07-30T09:30:25;11.33;;;5.03;;
15871;SDS011;8035;51.962;7.162;2023-07-30T09:32:52;11.50;;;4.50;;
15871;SDS011;8035;51.962;7.162;2023-07-30T09:35:19;8.37;;;4.37;;
15871;SDS011;8035;51.962;7.162;2023-07-30T09:37:45;11.17;;;4.57;;
15871;SDS011;8035;51.962;7.162;2023-07-30T09:40:11;9.47;;;4.53;;
15871;SDS011;8035;51.962;7.162;2023-07-30T09:42:38;10.70;;;4.50;;
15871;SDS011;8035;51.962;7.162;2023-07-30T09:45:08;7.67;;;4.00;;
15871;SDS011;8035;51.962;7.162;2023-07-30T09:47:45;9.57;;;3.97;;
15871;SDS011;8035;51.962;7.162;2023-07-30T09:50:11;7.67;;;3.63;;
15871;SDS011;8035;51.962;7.162;2023-07-30T09:52:37;9.53;;;3.53;;
15871;SDS011;8035;51.962;7.162;2023-07-30T09:55:05;7.77;;;3.37;;
15871;SDS011;8035;51.962;7.162;2023-07-30T09:57:32;11.40;;;3.07;;
15871;SDS011;8035;51.962;7.162;2023-07-30T09:59:57;7.57;;;3.80;;
15871;SDS011;8035;51.962;7.162;2023-07-30T10:02:23;7.10;;;2.63;;
15871;SDS011;8035;51.962;7.162;2023-07-30T10:04:51;8.67;;;3.10;;
15871;SDS011;8035;51.962;7.162;2023-07-30T10:07:22;9.10;;;3.57;;
15871;SDS011;8035;51.962;7.162;2023-07-30T10:12:53;9.30;;;2.80;;
15871;SDS011;8035;51.962;7.162;2023-07-30T10:15:21;6.50;;;2.93;;
15871;SDS011;8035;51.962;7.162;2023-07-30T10:17:48;5.90;;;2.93;;
15871;SDS011;8035;51.962;7.162;2023-07-30T10:20:19;7.30;;;3.03;;
15871;SDS011;8035;51.962;7.162;2023-07-30T10:22:55;6.60;;;2.90;;
15871;SDS011;8035;51.962;7.162;2023-07-30T10:25:22;10.27;;;3.40;;
15871;SDS011;8035;51.962;7.162;2023-07-30T10:28:10;6.57;;;2.70;;
15871;SDS011;8035;51.962;7.162;2023-07-30T10:31:05;9.33;;;2.93;;
15871;SDS011;8035;51.962;7.162;2023-07-30T10:33:43;9.57;;;3.07;;
15871;SDS011;8035;51.962;7.162;2023-07-30T10:36:17;8.63;;;3.37;;
15871;SDS011;8035;51.962;7.162;2023-07-30T10:38:52;6.83;;;2.60;;
15871;SDS011;8035;51.962;7.162;2023-07-30T10:41:18;9.37;;;3.00;;
15871;SDS011;8035;51.962;7.162;2023-07-30T10:43:49;6.37;;;2.33;;
15871;SDS011;8035;51.962;7.162;2023-07-30T10:46:16;13.80;;;3.27;;
15871;SDS011;8035;51.962;7.162;2023-07-30T10:48:43;10.37;;;2.90;;
15871;SDS011;8035;51.962;7.162;2023-07-30T10:51:11;9.00;;;3.27;;
15871;SDS011;8035;51.962;7.162;2023-07-30T10:53:44;10.17;;;3.17;;
15871;SDS011;8035;51.962;7.162;2023-07-30T10:56:10;8.17;;;2.60;;
15871;SDS011;8035;51.962;7.162;2023-07-30T10:58:37;7.57;;;3.20;;
15871;SDS011;8035;51.962;7.162;2023-07-30T11:01:06;12.60;;;2.90;;
15871;SDS011;8035;51.962;7.162;2023-07-30T11:03:33;7.27;;;3.40;;
15871;SDS011;8035;51.962;7.162;2023-07-30T11:05:59;10.93;;;2.77;;
15871;SDS011;8035;51.962;7.162;2023-07-30T11:08:39;10.30;;;2.90;;
15871;SDS011;8035;51.962;7.162;2023-07-30T11:11:06;6.77;;;2.80;;
15871;SDS011;8035;51.962;7.162;2023-07-30T11:13:37;7.50;;;2.80;;
15871;SDS011;8035;51.962;7.162;2023-07-30T11:16:04;6.90;;;2.63;;
15871;SDS011;8035;51.962;7.162;2023-07-30T11:18:31;6.90;;;2.50;;
15871;SDS011;8035;51.962;7.162;2023-07-30T11:23:29;6.63;;;2.10;;
15871;SDS011;8035;51.962;7.162;2023-07-30T11:25:55;5.40;;;2.43;;
15871;SDS011;8035;51.962;7.162;2023-07-30T11:28:27;5.30;;;2.07;;
15871;SDS011;8035;51.962;7.162;2023-07-30T11:31:12;8.50;;;2.40;;
15871;SDS011;8035;51.962;7.162;2023-07-30T11:33:46;4.47;;;1.70;;
15871;SDS011;8035;51.962;7.162;2023-07-30T11:36:14;4.30;;;1.93;;
15871;SDS011;8035;51.962;7.162;2023-07-30T11:38:41;11.73;;;2.37;;
15871;SDS011;8035;51.962;7.162;2023-07-30T11:41:07;8.17;;;2.17;;
15871;SDS011;8035;51.962;7.162;2023-07-30T11:43:35;6.40;;;2.33;;
15871;SDS011;8035;51.962;7.162;2023-07-30T11:46:10;4.90;;;1.90;;
15871;SDS011;8035;51.962;7.162;2023-07-30T11:48:45;4.20;;;2.10;;
15871;SDS011;8035;51.962;7.162;2023-07-30T11:51:18;4.77;;;1.90;;
15871;SDS011;8035;51.962;7.162;2023-07-30T11:53:52;7.60;;;1.90;;
15871;SDS011;8035;51.962;7.162;2023-07-30T11:56:20;4.87;;;1.70;;
15871;SDS011;8035;51.962;7.162;2023-07-30T11:58:47;4.67;;;1.90;;
15871;SDS011;8035;51.962;7.162;2023-07-30T12:01:15;4.57;;;1.97;;
15871;SDS011;8035;51.962;7.162;2023-07-30T12:03:41;5.00;;;2.00;;
15871;SDS011;8035;51.962;7.162;2023-07-30T12:06:07;2.60;;;1.33;;
15871;SDS011;8035;51.962;7.162;2023-07-30T12:08:36;2.80;;;1.37;;
15871;SDS011;8035;51.962;7.162;2023-07-30T12:11:03;3.60;;;1.53;;
15871;SDS011;8035;51.962;7.162;2023-07-30T12:13:29;5.83;;;1.80;;
15871;SDS011;8035;51.962;7.162;2023-07-30T12:15:55;6.77;;;1.77;;
15871;SDS011;8035;51.962;7.162;2023-07-30T12:18:22;4.93;;;2.10;;
15871;SDS011;8035;51.962;7.162;2023-07-30T12:20:52;6.23;;;1.90;;
15871;SDS011;8035;51.962;7.162;2023-07-30T12:23:21;4.43;;;1.83;;
15871;SDS011;8035;51.962;7.162;2023-07-30T12:25:46;3.77;;;1.87;;
15871;SDS011;8035;51.962;7.162;2023-07-30T12:28:12;4.57;;;1.70;;
15871;SDS011;8035;51.962;7.162;2023-07-30T12:30:38;2.97;;;1.47;;
15871;SDS011;8035;51.962;7.162;2023-07-30T12:33:04;3.13;;;1.40;;
15871;SDS011;8035;51.962;7.162;2023-07-30T12:35:33;4.43;;;1.47;;
15871;SDS011;8035;51.962;7.162;2023-07-30T12:37:59;2.43;;;1.23;;
15871;SDS011;8035;51.962;7.162;2023-07-30T12:40:26;3.23;;;1.40;;
15871;SDS011;8035;51.962;7.162;2023-07-30T12:42:54;4.70;;;1.77;;
15871;SDS011;8035;51.962;7.162;2023-07-30T12:45:20;6.23;;;1.77;;
15871;SDS011;8035;51.962;7.162;2023-07-30T12:47:46;4.43;;;1.57;;
15871;SDS011;8035;51.962;7.162;2023-07-30T12:50:12;4.93;;;1.50;;
15871;SDS011;8035;51.962;7.162;2023-07-30T12:52:37;4.20;;;1.50;;
15871;SDS011;8035;51.962;7.162;2023-07-30T12:55:03;2.50;;;1.10;;
15871;SDS011;8035;51.962;7.162;2023-07-30T12:57:29;4.50;;;1.60;;
15871;SDS011;8035;51.962;7.162;2023-07-30T12:59:55;3.13;;;1.40;;
15871;SDS011;8035;51.962;7.162;2023-07-30T13:02:20;5.80;;;1.70;;
15871;SDS011;8035;51.962;7.162;2023-07-30T13:04:46;3.73;;;1.50;;
15871;SDS011;8035;51.962;7.162;2023-07-30T13:07:11;3.50;;;1.87;;
15871;SDS011;8035;51.962;7.162;2023-07-30T13:09:37;10.73;;;2.20;;
15871;SDS011;8035;51.962;7.162;2023-07-30T13:12:02;6.20;;;1.90;;
15871;SDS011;8035;51.962;7.162;2023-07-30T13:14:28;5.27;;;1.90;;
15871;SDS011;8035;51.962;7.162;2023-07-30T13:16:53;6.13;;;2.20;;
15871;SDS011;8035;51.962;7.162;2023-07-30T13:19:19;4.67;;;2.10;;
15871;SDS011;8035;51.962;7.162;2023-07-30T13:21:44;4.00;;;1.60;;
15871;SDS011;8035;51.962;7.162;2023-07-30T13:24:10;7.03;;;1.77;;
15871;SDS011;8035;51.962;7.162;2023-07-30T13:26:35;7.40;;;2.03;;
15871;SDS011;8035;51.962;7.162;2023-07-30T13:29:01;4.90;;;1.70;;
15871;SDS011;8035;51.962;7.162;2023-07-30T13:31:26;7.00;;;2.10;;
15871;SDS011;8035;51.962;7.162;2023-07-30T13:33:52;4.87;;;2.20;;
15871;SDS011;8035;51.962;7.162;2023-07-30T13:36:18;5.33;;;1.93;;
15871;SDS011;8035;51.962;7.162;2023-07-30T13:38:43;4.67;;;1.90;;
15871;SDS011;8035;51.962;7.162;2023-07-30T13:41:09;4.47;;;1.93;;
15871;SDS011;8035;51.962;7.162;2023-07-30T13:43:35;4.30;;;1.90;;
15871;SDS011;8035;51.962;7.162;2023-07-30T13:46:00;10.33;;;2.97;;
15871;SDS011;8035;51.962;7.162;2023-07-30T13:48:26;6.50;;;2.13;;
15871;SDS011;8035;51.962;7.162;2023-07-30T13:50:52;4.68;;;1.70;;
15871;SDS011;8035;51.962;7.162;2023-07-30T13:53:18;5.33;;;1.83;;
15871;SDS011;8035;51.962;7.162;2023-07-30T13:55:44;4.25;;;2.13;;
15871;SDS011;8035;51.962;7.162;2023-07-30T13:58:10;5.38;;;2.00;;
15871;SDS011;8035;51.962;7.162;2023-07-30T14:00:36;4.15;;;2.03;;
15871;SDS011;8035;51.962;7.162;2023-07-30T14:03:01;3.67;;;1.77;;
15871;SDS011;8035;51.962;7.162;2023-07-30T14:05:27;5.20;;;2.03;;
15871;SDS011;8035;51.962;7.162;2023-07-30T14:07:53;7.07;;;2.33;;
15871;SDS011;8035;51.962;7.162;2023-07-30T14:10:21;7.00;;;2.00;;
15871;SDS011;8035;51.962;7.162;2023-07-30T14:12:47;4.83;;;2.23;;
15871;SDS011;8035;51.962;7.162;2023-07-30T14:15:13;3.67;;;1.77;;
15871;SDS011;8035;51.962;7.162;2023-07-30T14:17:39;4.23;;;1.90;;
15871;SDS011;8035;51.962;7.162;2023-07-30T14:20:05;4.20;;;1.93;;
15871;SDS011;8035;51.962;7.162;2023-07-30T14:22:31;7.20;;;2.83;;
15871;SDS011;8035;51.962;7.162;2023-07-30T14:24:57;5.77;;;2.27;;
15871;SDS011;8035;51.962;7.162;2023-07-30T14:27:23;5.53;;;1.97;;
15871;SDS011;8035;51.962;7.162;2023-07-30T14:29:50;6.37;;;1.93;;
15871;SDS011;8035;51.962;7.162;2023-07-30T14:32:15;6.00;;;1.67;;
15871;SDS011;8035;51.962;7.162;2023-07-30T14:34:42;3.97;;;1.40;;
15871;SDS011;8035;51.962;7.162;2023-07-30T14:37:07;6.30;;;1.97;;
15871;SDS011;8035;51.962;7.162;2023-07-30T14:39:33;5.15;;;1.30;;
15871;SDS011;8035;51.962;7.162;2023-07-30T14:41:58;5.07;;;1.60;;
15871;SDS011;8035;51.962;7.162;2023-07-30T14:44:24;5.03;;;1.35;;
15871;SDS011;8035;51.962;7.162;2023-07-30T14:46:50;3.47;;;1.30;;
15871;SDS011;8035;51.962;7.162;2023-07-30T14:49:15;3.88;;;1.40;;
15871;SDS011;8035;51.962;7.162;2023-07-30T14:51:41;4.70;;;1.40;;
15871;SDS011;8035;51.962;7.162;2023-07-30T14:54:06;3.83;;;1.43;;
15871;SDS011;8035;51.962;7.162;2023-07-30T14:56:32;4.40;;;1.50;;